Time;durP1;ratioP1;P1;durP2;ratioP2;P2;SDS_P1;SDS_P2;PMS_P1;PMS_P2;Temp;Humidity;BMP_temperature;BMP_pressure;BME280_temperature;BME280_humidity;BME280_pressure;Samples;Min_cycle;Max_cycle;Signal;HPM_P1;HPM_P2
2024/02/09 00:01:49;;;;;;;;;;;;;;;8.18;100.00;94451.94;5104533;28;19946;-71
2024/02/09 00:04:15;;;;;;;;;;;;;;;8.17;100.00;94438.09;5104543;28;19933;-71
2024/02/09 00:06:40;;;;;;;;;;;;;;;8.19;100.00;94436.03;5104560;28;19931;-70
2024/02/09 00:09:12;;;;;;;;;;;;;;;8.20;100.00;94423.75;5104421;28;19957;-70
2024/02/09 00:11:38;;;;;;;;;;;;;;;8.21;100.00;94410.44;5104966;28;19931;-70
2024/02/09 00:14:04;;;;;;;;;;;;;;;8.23;100.00;94410.16;5105238;28;19935;-70
2024/02/09 00:16:31;;;;;;;;;;;;;;;8.23;100.00;94410.16;5104377;28;20107;-70
2024/02/09 00:18:57;;;;;;;;;;;;;;;8.25;100.00;94414.13;5103632;28;19944;-70
2024/02/09 00:21:23;;;;;;;;;;;;;;;8.24;100.00;94409.94;5104282;28;20009;-71
2024/02/09 00:23:48;;;;;;;;;;;;;;;8.24;100.00;94401.31;5104274;28;19936;-70
2024/02/09 00:26:14;;;;;;;;;;;;;;;8.25;100.00;94395.84;5104269;28;19932;-70
2024/02/09 00:28:40;;;;;;;;;;;;;;;8.25;100.00;94403.69;5104231;28;19935;-71
2024/02/09 00:31:06;;;;;;;;;;;;;;;8.26;100.00;94399.25;5104182;28;19997;-70
2024/02/09 00:33:32;;;;;;;;;;;;;;;8.25;100.00;94398.47;5104973;28;19938;-70
2024/02/09 00:35:58;;;;;;;;;;;;;;;8.25;100.00;94388.00;5104173;28;20005;-70
2024/02/09 00:38:24;;;;;;;;;;;;;;;8.25;100.00;94393.25;5104130;28;20110;-73
2024/02/09 00:40:51;;;;;;;;;;;;;;;8.24;100.00;94399.47;5104003;28;19954;-74
2024/02/09 00:43:19;;;;;;;;;;;;;;;8.24;100.00;94394.25;5104757;28;19933;-73
2024/02/09 00:45:44;;;;;;;;;;;;;;;8.24;100.00;94394.25;5109114;28;20116;-73
2024/02/09 00:48:11;;;;;;;;;;;;;;;8.26;100.00;94399.25;5108837;28;19942;-73
2024/02/09 00:50:37;;;;;;;;;;;;;;;8.26;100.00;94399.25;5108232;28;20248;-73
2024/02/09 00:53:10;;;;;;;;;;;;;;;8.26;100.00;94404.47;5108260;28;19938;-76
2024/02/09 00:55:36;;;;;;;;;;;;;;;8.27;100.00;94404.22;5108750;28;19928;-73
2024/02/09 00:58:02;;;;;;;;;;;;;;;8.26;100.00;94407.06;5107964;28;20006;-65
2024/02/09 01:00:30;;;;;;;;;;;;;;;8.26;100.00;94399.25;5108483;28;19951;-66
2024/02/09 01:02:59;;;;;;;;;;;;;;;8.25;100.00;94400.25;5108008;28;19929;-65
2024/02/09 01:05:25;;;;;;;;;;;;;;;8.24;100.00;94391.66;5108209;28;19934;-64
2024/02/09 01:07:51;;;;;;;;;;;;;;;8.23;100.00;94397.94;5107853;28;20016;-65
2024/02/09 01:10:17;;;;;;;;;;;;;;;8.23;100.00;94403.16;5089833;28;19934;-65
2024/02/09 02:46:01;;;;;;;;;;;;;;;7.80;100.00;94331.13;5106543;28;20110;-80
2024/02/09 03:04:54;;;;;;;;;;;;;;;7.78;100.00;94318.31;5106225;28;20125;-67
2024/02/09 03:07:20;;;;;;;;;;;;;;;7.79;100.00;94308.66;5104880;28;19932;-67
2024/02/09 03:09:45;;;;;;;;;;;;;;;7.80;100.00;94310.25;5105425;28;19971;-67
2024/02/09 03:12:13;;;;;;;;;;;;;;;7.80;100.00;94312.84;5105550;28;20108;-67
2024/02/09 03:14:40;;;;;;;;;;;;;;;7.79;100.00;94306.84;5105459;28;19940;-68
2024/02/09 03:17:05;;;;;;;;;;;;;;;7.79;100.00;94306.84;5105397;28;19943;-68
2024/02/09 03:19:31;;;;;;;;;;;;;;;7.81;100.00;94306.59;5105330;28;19934;-66
2024/02/09 03:21:57;;;;;;;;;;;;;;;7.83;100.00;94301.91;5105332;28;19947;-73
2024/02/09 03:24:23;;;;;;;;;;;;;;;7.83;100.00;94305.31;5105281;28;19931;-68
2024/02/09 03:26:49;;;;;;;;;;;;;;;7.84;100.00;94303.50;5105246;28;19959;-68
2024/02/09 03:29:14;;;;;;;;;;;;;;;7.84;100.00;94296.44;5105229;28;20095;-67
2024/02/09 03:31:40;;;;;;;;;;;;;;;7.84;100.00;94298.28;5105623;28;19939;-68
2024/02/09 03:34:06;;;;;;;;;;;;;;;7.85;100.00;94299.81;5105039;28;19938;-67
2024/02/09 03:36:34;;;;;;;;;;;;;;;7.84;100.00;94306.88;5105847;28;20005;-66
2024/02/09 03:39:01;;;;;;;;;;;;;;;7.85;100.00;94286.78;5105030;28;19950;-73
2024/02/09 03:41:27;;;;;;;;;;;;;;;7.85;100.00;94286.78;5104982;28;20239;-78
2024/02/09 03:43:53;;;;;;;;;;;;;;;7.83;100.00;94276.63;5104851;28;19935;-80
2024/02/09 03:46:20;;;;;;;;;;;;;;;7.80;100.00;94271.13;5105371;28;20240;-80
2024/02/09 03:48:45;;;;;;;;;;;;;;;7.78;100.00;94268.75;5104782;28;19940;-80
2024/02/09 03:51:11;;;;;;;;;;;;;;;7.78;100.00;94271.34;5105297;28;19981;-80
2024/02/09 03:53:37;;;;;;;;;;;;;;;7.79;100.00;94277.34;5104723;28;19983;-81
2024/02/09 03:56:03;;;;;;;;;;;;;;;7.81;100.00;94275.28;5105107;28;19999;-78
2024/02/09 03:58:29;;;;;;;;;;;;;;;7.81;100.00;94283.91;5104704;28;19954;-67
2024/02/09 04:00:55;;;;;;;;;;;;;;;7.82;100.00;94289.91;5105289;28;20186;-71
2024/02/09 04:03:20;;;;;;;;;;;;;;;7.83;100.00;94288.84;5104571;28;19947;-71
2024/02/09 04:05:46;;;;;;;;;;;;;;;7.83;100.00;94286.25;5104526;28;19932;-71
2024/02/09 04:08:12;;;;;;;;;;;;;;;7.83;100.00;94287.06;5104604;28;20003;-71
2024/02/09 04:10:40;;;;;;;;;;;;;;;7.83;100.00;94287.06;5104045;28;19936;-72
2024/02/09 04:13:06;;;;;;;;;;;;;;;7.83;100.00;94284.44;5104449;28;19937;-71
2024/02/09 04:15:31;;;;;;;;;;;;;;;7.85;100.00;94287.59;5104374;28;19942;-74
2024/02/09 04:17:59;;;;;;;;;;;;;;;7.84;100.00;94287.84;5104387;28;19934;-71
2024/02/09 04:20:26;;;;;;;;;;;;;;;7.86;100.00;94286.53;5104765;28;19958;-80
2024/02/09 04:22:52;;;;;;;;;;;;;;;7.86;100.00;94280.53;5104234;28;19939;-79
2024/02/09 04:25:18;;;;;;;;;;;;;;;7.86;100.00;94276.09;5104254;28;19972;-80
2024/02/09 04:27:45;;;;;;;;;;;;;;;7.88;100.00;94274.03;5086243;28;19943;-79
2024/02/09 04:30:13;;;;;;;;;;;;;;;7.90;100.00;94265.94;5104155;28;20224;-79
2024/02/09 04:32:39;;;;;;;;;;;;;;;7.88;100.00;94274.03;5104154;28;19938;-79
2024/02/09 04:35:05;;;;;;;;;;;;;;;7.89;100.00;94265.13;5104179;28;20267;-73
2024/02/09 04:37:31;;;;;;;;;;;;;;;7.90;100.00;94261.50;5087003;28;19999;-71
2024/02/09 04:39:56;;;;;;;;;;;;;;;7.91;100.00;94254.44;5104635;28;20002;-72
2024/02/09 04:42:22;;;;;;;;;;;;;;;7.92;100.00;94263.88;5103985;28;19951;-71
2024/02/09 04:44:48;;;;;;;;;;;;;;;7.92;100.00;94263.88;5104036;28;19935;-71
2024/02/09 04:47:15;;;;;;;;;;;;;;;7.92;100.00;94267.25;5103957;28;20183;-71
2024/02/09 04:49:41;;;;;;;;;;;;;;;7.93;100.00;94266.19;5103962;28;19938;-72
2024/02/09 04:52:07;;;;;;;;;;;;;;;7.93;100.00;94268.81;5104466;28;19943;-70
2024/02/09 04:54:33;;;;;;;;;;;;;;;7.93;100.00;94275.88;5103927;28;19939;-65
2024/02/09 04:56:59;;;;;;;;;;;;;;;7.95;100.00;94273.00;5104135;28;19960;-72
2024/02/09 04:59:27;;;;;;;;;;;;;;;7.93;100.00;94268.81;5104690;28;19947;-71
2024/02/09 05:01:53;;;;;;;;;;;;;;;7.94;100.00;94272.22;5104249;28;19956;-72
2024/02/09 05:04:19;;;;;;;;;;;;;;;7.95;100.00;94265.19;5103899;28;19958;-72
2024/02/09 05:06:44;;;;;;;;;;;;;;;7.94;100.00;94269.63;5104631;28;20009;-72
2024/02/09 05:09:10;;;;;;;;;;;;;;;7.96;100.00;94258.91;5104126;28;20013;-72
2024/02/09 05:11:37;;;;;;;;;;;;;;;7.98;100.00;94259.44;5103750;28;19935;-79
2024/02/09 05:14:06;;;;;;;;;;;;;;;7.96;100.00;94254.50;5103798;28;19955;-73
2024/02/09 05:16:33;;;;;;;;;;;;;;;7.98;100.00;94252.41;5103699;28;19947;-73
2024/02/09 05:19:01;;;;;;;;;;;;;;;7.99;100.00;94250.56;5103721;28;19938;-73
2024/02/09 05:21:26;;;;;;;;;;;;;;;7.98;100.00;94251.59;5104178;28;19951;-73
2024/02/09 05:23:52;;;;;;;;;;;;;;;7.98;100.00;94241.16;5103879;28;19997;-72
2024/02/09 05:26:19;;;;;;;;;;;;;;;7.99;100.00;94253.19;5103635;28;20113;-74
2024/02/09 05:28:46;;;;;;;;;;;;;;;7.99;100.00;94247.97;5103599;28;19941;-73
2024/02/09 05:31:13;;;;;;;;;;;;;;;8.00;100.00;94247.72;5107268;28;19939;-67
2024/02/09 05:33:39;;;;;;;;;;;;;;;7.99;100.00;94246.13;5107415;28;19941;-73
2024/02/09 05:36:06;;;;;;;;;;;;;;;8.00;100.00;94244.31;5107897;28;19947;-73
2024/02/09 05:38:37;;;;;;;;;;;;;;;8.00;100.00;94242.50;5107894;28;19947;-73
2024/02/09 05:41:03;;;;;;;;;;;;;;;8.00;100.00;94241.69;5107563;28;19956;-73
2024/02/09 05:43:29;;;;;;;;;;;;;;;8.00;100.00;94236.47;5107268;28;19958;-73
2024/02/09 05:45:55;;;;;;;;;;;;;;;7.99;100.00;94240.13;5107204;28;19934;-73
2024/02/09 05:48:21;;;;;;;;;;;;;;;7.98;100.00;94243.78;5107183;28;19941;-80
2024/02/09 05:50:48;;;;;;;;;;;;;;;7.99;100.00;94240.13;5107104;28;19931;-73
2024/02/09 05:53:14;;;;;;;;;;;;;;;7.98;100.00;94238.56;5088881;28;19944;-73
2024/02/09 05:55:40;;;;;;;;;;;;;;;7.97;100.00;94237.00;5106920;28;20023;-73
2024/02/09 05:58:06;;;;;;;;;;;;;;;7.97;100.00;94235.16;5106895;28;19962;-73
2024/02/09 06:00:32;;;;;;;;;;;;;;;7.96;100.00;94238.03;5106798;28;19936;-73
2024/02/09 06:02:58;;;;;;;;;;;;;;;7.95;100.00;94232.03;5107400;28;19927;-74
2024/02/09 06:05:24;;;;;;;;;;;;;;;7.96;100.00;94233.63;5106823;28;19950;-72
2024/02/09 06:07:49;;;;;;;;;;;;;;;7.95;100.00;94239.09;5107470;28;19932;-67
2024/02/09 06:10:15;;;;;;;;;;;;;;;7.94;100.00;94248.75;5106733;28;19973;-69
2024/02/09 06:12:43;;;;;;;;;;;;;;;7.94;100.00;94246.13;5107193;28;19941;-70
2024/02/09 06:15:10;;;;;;;;;;;;;;;7.95;100.00;94239.84;5106572;28;19943;-69
2024/02/09 06:17:38;;;;;;;;;;;;;;;7.94;100.00;94235.69;5106475;28;19932;-70
2024/02/09 06:20:08;;;;;;;;;;;;;;;7.94;100.00;94233.09;5106531;28;19941;-70
2024/02/09 06:22:34;;;;;;;;;;;;;;;7.92;100.00;94235.94;5106380;28;19957;-70
2024/02/09 06:25:00;;;;;;;;;;;;;;;7.93;100.00;94244.53;5106401;28;19935;-73
2024/02/09 06:27:27;;;;;;;;;;;;;;;7.94;100.00;94233.09;5106399;28;19998;-67
2024/02/09 06:29:54;;;;;;;;;;;;;;;7.96;100.00;94245.84;5106253;28;19927;-67
2024/02/09 06:32:22;;;;;;;;;;;;;;;7.97;100.00;94250.06;5106285;28;20117;-68
2024/02/09 06:34:48;;;;;;;;;;;;;;;7.98;100.00;94247.19;5106162;28;19941;-67
2024/02/09 06:37:18;;;;;;;;;;;;;;;7.97;100.00;94252.66;5106155;28;19938;-67
2024/02/09 06:39:46;;;;;;;;;;;;;;;7.98;100.00;94254.22;5105353;28;20111;-67
2024/02/09 06:42:12;;;;;;;;;;;;;;;7.98;100.00;94246.38;5105160;28;19944;-69
2024/02/09 06:44:43;;;;;;;;;;;;;;;7.96;100.00;94251.88;5106058;28;20227;-66
2024/02/09 06:47:12;;;;;;;;;;;;;;;7.97;100.00;94250.81;5088354;28;19942;-69
2024/02/09 06:49:45;;;;;;;;;;;;;;;7.96;100.00;94246.66;5106478;28;19935;-70
2024/02/09 06:52:11;;;;;;;;;;;;;;;7.96;100.00;94253.69;5105896;28;19938;-70
2024/02/09 06:54:38;;;;;;;;;;;;;;;7.97;100.00;94250.81;5105822;28;19945;-70
2024/02/09 06:57:04;;;;;;;;;;;;;;;7.97;100.00;94250.06;5105672;28;19961;-70
2024/02/09 06:59:30;;;;;;;;;;;;;;;7.96;100.00;94248.47;5105760;28;19936;-70
2024/02/09 07:01:56;;;;;;;;;;;;;;;7.95;100.00;94247.69;5105031;28;19959;-70
2024/02/09 07:04:23;;;;;;;;;;;;;;;7.96;100.00;94251.06;5105700;28;20125;-72
2024/02/09 07:06:51;;;;;;;;;;;;;;;7.94;100.00;94251.34;5105616;28;19939;-73
2024/02/09 07:09:21;;;;;;;;;;;;;;;7.94;100.00;94256.56;5106284;28;20142;-73
2024/02/09 07:11:48;;;;;;;;;;;;;;;7.97;100.00;94252.66;5104780;28;21102;-73
2024/02/09 07:14:15;;;;;;;;;;;;;;;7.98;100.00;94255.03;5105957;28;19945;-72
2024/02/09 07:16:41;;;;;;;;;;;;;;;8.00;100.00;94247.72;5105389;28;19950;-73
2024/02/09 07:19:09;;;;;;;;;;;;;;;8.01;100.00;94253.72;5105384;28;19941;-65
2024/02/09 07:21:36;;;;;;;;;;;;;;;8.03;100.00;94252.41;5105291;28;19957;-80
2024/02/09 07:24:02;;;;;;;;;;;;;;;8.05;100.00;94249.56;5105278;28;20224;-70
2024/02/09 07:26:28;;;;;;;;;;;;;;;8.04;100.00;94250.59;5106054;28;19931;-71
2024/02/09 07:28:54;;;;;;;;;;;;;;;8.05;100.00;94255.56;5105374;28;19957;-71
2024/02/09 07:31:21;;;;;;;;;;;;;;;8.04;100.00;94246.19;5105138;28;20136;-71
2024/02/09 07:33:47;;;;;;;;;;;;;;;8.04;100.00;94243.56;5105113;28;19939;-71
2024/02/09 07:36:13;;;;;;;;;;;;;;;8.04;100.00;94240.97;5105854;28;20083;-71
2024/02/09 07:38:39;;;;;;;;;;;;;;;8.05;100.00;94236.50;5105001;28;20221;-65
2024/02/09 07:41:05;;;;;;;;;;;;;;;8.06;100.00;94240.69;5104780;28;19949;-78
2024/02/09 07:43:31;;;;;;;;;;;;;;;8.08;100.00;94236.78;5105203;28;19951;-79
2024/02/09 07:45:57;;;;;;;;;;;;;;;8.10;100.00;94234.69;5104823;28;20111;-79
2024/02/09 07:48:23;;;;;;;;;;;;;;;8.13;100.00;94228.97;5104881;28;20127;-79
2024/02/09 07:50:52;;;;;;;;;;;;;;;8.18;100.00;94230.81;5104737;28;19932;-79
2024/02/09 07:53:18;;;;;;;;;;;;;;;8.27;100.00;94233.69;5104478;28;19934;-79
2024/02/09 07:55:44;;;;;;;;;;;;;;;8.34;100.00;94226.41;5104731;28;19981;-79
2024/02/09 07:58:11;;;;;;;;;;;;;;;8.45;100.00;94229.84;5104599;28;19960;-66
2024/02/09 08:00:36;;;;;;;;;;;;;;;8.54;100.00;94228.28;5105151;28;19944;-71
2024/02/09 08:03:02;;;;;;;;;;;;;;;8.62;100.00;94230.41;5104562;28;19999;-70
2024/02/09 08:05:28;;;;;;;;;;;;;;;8.64;100.00;94222.31;5104584;28;19947;-71
2024/02/09 08:07:54;;;;;;;;;;;;;;;8.67;100.00;94219.16;5104477;28;19951;-71
2024/02/09 08:10:20;;;;;;;;;;;;;;;8.70;100.00;94221.28;5104466;28;19932;-71
2024/02/09 08:12:46;;;;;;;;;;;;;;;8.75;100.00;94210.81;5104412;28;20218;-71
2024/02/09 08:15:12;;;;;;;;;;;;;;;8.80;100.00;94213.44;5104655;28;19940;-72
2024/02/09 08:17:52;;;;;;;;;;;;;;;8.87;100.00;94206.09;5104634;28;19970;-66
2024/02/09 08:20:19;;;;;;;;;;;;;;;9.00;100.00;94211.84;5105158;28;19957;-65
2024/02/09 08:22:45;;;;;;;;;;;;;;;9.07;100.00;94201.91;5104238;28;19957;-65
2024/02/09 08:25:12;;;;;;;;;;;;;;;9.14;100.00;94212.91;5104272;28;19937;-65
2024/02/09 08:27:38;;;;;;;;;;;;;;;9.25;100.00;94211.81;5104799;28;20019;-66
2024/02/09 08:30:10;;;;;;;;;;;;;;;9.56;100.00;94219.63;5104214;28;19974;-65
2024/02/09 08:32:41;;;;;;;;;;;;;;;9.75;100.00;94217.22;5105005;28;19927;-66
2024/02/09 08:35:07;;;;;;;;;;;;;;;9.80;100.00;94224.25;5104965;28;19935;-66
2024/02/09 08:37:33;;;;;;;;;;;;;;;9.81;100.00;94218.75;5104115;28;19931;-69
2024/02/09 08:39:59;;;;;;;;;;;;;;;9.87;100.00;94235.22;5104658;28;19944;-70
2024/02/09 08:42:26;;;;;;;;;;;;;;;9.99;100.00;94232.31;5104032;28;19953;-70
2024/02/09 08:44:52;;;;;;;;;;;;;;;10.18;100.00;94232.47;5104045;28;20082;-70
2024/02/09 08:47:18;;;;;;;;;;;;;;;10.43;100.00;94237.59;5104048;28;20099;-70
2024/02/09 08:49:44;;;;;;;;;;;;;;;10.70;100.00;94234.56;5104794;28;19936;-70
2024/02/09 08:52:11;;;;;;;;;;;;;;;11.01;100.00;94236.97;5104009;28;19932;-71
2024/02/09 08:54:38;;;;;;;;;;;;;;;11.22;100.00;94228.94;5104493;28;19933;-73
2024/02/09 08:57:04;;;;;;;;;;;;;;;11.18;100.00;94228.69;5085673;28;19966;-73
2024/02/09 08:59:30;;;;;;;;;;;;;;;11.07;100.00;94232.47;5104730;28;19977;-73
2024/02/09 09:01:59;;;;;;;;;;;;;;;11.03;100.00;94242.72;5104304;28;19960;-73
2024/02/09 09:04:26;;;;;;;;;;;;;;;10.99;100.00;94235.69;5104713;28;19957;-73
2024/02/09 09:06:52;;;;;;;;;;;;;;;10.91;100.00;94237.81;5107979;28;19935;-73
2024/02/09 09:09:17;;;;;;;;;;;;;;;10.83;100.00;94235.00;5107896;28;19953;-72
2024/02/09 09:11:44;;;;;;;;;;;;;;;10.80;100.00;94235.56;5107890;28;19981;-73
2024/02/09 09:14:13;;;;;;;;;;;;;;;10.90;100.00;94241.50;5108635;28;19936;-74
2024/02/09 09:16:39;;;;;;;;;;;;;;;10.95;100.00;94228.34;5107763;28;19940;-74
2024/02/09 09:19:07;;;;;;;;;;;;;;;10.97;100.00;94228.84;5107736;28;19942;-74
2024/02/09 09:21:33;;;;;;;;;;;;;;;10.96;100.00;94223.88;5107636;28;19950;-74
2024/02/09 09:23:59;;;;;;;;;;;;;;;10.91;100.00;94226.56;5107625;28;19977;-74
2024/02/09 09:26:30;;;;;;;;;;;;;;;10.87;100.00;94228.94;5108141;28;20202;-74
2024/02/09 09:28:59;;;;;;;;;;;;;;;10.89;100.00;94226.81;5108404;28;20110;-71
2024/02/09 09:31:29;;;;;;;;;;;;;;;10.90;100.00;94228.41;5107592;28;19932;-66
2024/02/09 09:33:55;;;;;;;;;;;;;;;10.88;100.00;94225.28;5107377;28;19939;-66
2024/02/09 09:36:21;;;;;;;;;;;;;;;10.87;100.00;94234.19;5107957;28;20110;-67
2024/02/09 09:38:47;;;;;;;;;;;;;;;10.84;100.00;94233.97;5107334;28;19937;-66
2024/02/09 09:41:13;;;;;;;;;;;;;;;10.81;100.00;94229.25;5107214;28;20239;-66
2024/02/09 09:43:39;;;;;;;;;;;;;;;10.81;100.00;94237.13;5107279;28;19934;-66
2024/02/09 09:46:09;;;;;;;;;;;;;;;10.80;100.00;94232.94;5107180;28;19936;-66
2024/02/09 09:48:37;;;;;;;;;;;;;;;10.80;100.00;94227.69;5107538;28;20119;-66
2024/02/09 09:51:04;;;;;;;;;;;;;;;10.80;100.00;94227.69;5107655;28;19935;-73
2024/02/09 09:53:42;;;;;;;;;;;;;;;10.76;100.00;94222.97;5107087;28;20249;-74
2024/02/09 09:56:09;;;;;;;;;;;;;;;10.76;100.00;94216.97;5107670;28;20215;-74
2024/02/09 09:58:35;;;;;;;;;;;;;;;10.77;100.00;94214.09;5107820;28;20105;-73
2024/02/09 10:01:08;;;;;;;;;;;;;;;10.81;100.00;94213.53;5107451;28;19931;-73
2024/02/09 10:03:37;;;;;;;;;;;;;;;10.80;100.00;94214.59;5106913;28;19932;-73
2024/02/09 10:06:03;;;;;;;;;;;;;;;10.78;100.00;94212.22;5107150;28;19934;-67
2024/02/09 10:08:31;;;;;;;;;;;;;;;10.82;100.00;94213.25;5106764;28;20138;-71
2024/02/09 10:10:57;;;;;;;;;;;;;;;10.85;100.00;94210.06;5106796;28;19939;-71
2024/02/09 10:13:23;;;;;;;;;;;;;;;10.86;100.00;94219.53;5106682;28;20102;-72
2024/02/09 10:15:54;;;;;;;;;;;;;;;10.83;100.00;94203.53;5106467;28;19950;-72
2024/02/09 10:18:21;;;;;;;;;;;;;;;10.80;100.00;94212.75;5107466;28;19932;-71
2024/02/09 10:20:48;;;;;;;;;;;;;;;10.82;100.00;94217.72;5106508;28;19936;-72
2024/02/09 10:23:16;;;;;;;;;;;;;;;10.81;100.00;94211.66;5106988;28;19951;-72
2024/02/09 10:25:43;;;;;;;;;;;;;;;10.83;100.00;94211.41;5106464;28;19940;-74
2024/02/09 10:28:11;;;;;;;;;;;;;;;10.86;100.00;94210.88;5107195;28;20073;-78
2024/02/09 10:30:37;;;;;;;;;;;;;;;10.89;100.00;94211.09;5106394;28;19940;-78
2024/02/09 10:33:03;;;;;;;;;;;;;;;10.95;100.00;94203.97;5106306;28;19942;-79
2024/02/09 10:35:30;;;;;;;;;;;;;;;10.99;100.00;94194.50;5106292;28;19940;-78
2024/02/09 10:37:57;;;;;;;;;;;;;;;11.08;100.00;94198.09;5106212;28;19936;-78
2024/02/09 10:40:24;;;;;;;;;;;;;;;11.17;100.00;94190.41;5106206;28;19956;-79
2024/02/09 10:42:53;;;;;;;;;;;;;;;11.22;100.00;94182.50;5106153;28;19955;-69
2024/02/09 10:45:20;;;;;;;;;;;;;;;11.28;100.00;94189.25;5106145;28;19939;-78
2024/02/09 10:47:47;;;;;;;;;;;;;;;11.32;100.00;94166.66;5106001;28;19932;-79
2024/02/09 10:50:14;;;;;;;;;;;;;;;11.38;100.00;94175.25;5106788;28;19954;-78
2024/02/09 10:52:42;;;;;;;;;;;;;;;11.44;100.00;94183.84;5105951;28;19930;-79
2024/02/09 10:55:09;;;;;;;;;;;;;;;11.47;100.00;94173.59;5105883;28;19940;-78
2024/02/09 10:57:35;;;;;;;;;;;;;;;11.50;100.00;94177.50;5105973;28;20258;-78
2024/02/09 11:00:02;;;;;;;;;;;;;;;11.54;100.00;94179.28;5106263;28;19945;-73
2024/02/09 11:02:33;;;;;;;;;;;;;;;11.57;100.00;94168.22;5105719;28;19954;-71
2024/02/09 11:05:00;;;;;;;;;;;;;;;11.56;100.00;94147.50;5105667;28;19939;-74
2024/02/09 11:07:26;;;;;;;;;;;;;;;11.58;100.00;94169.00;5106391;28;19944;-74
2024/02/09 11:09:53;;;;;;;;;;;;;;;11.57;100.00;94167.44;5105541;28;19932;-74
2024/02/09 11:12:19;;;;;;;;;;;;;;;11.56;100.00;94158.78;5105560;28;19935;-74
2024/02/09 11:14:48;;;;;;;;;;;;;;;11.56;100.00;94156.16;5105513;28;19936;-74
2024/02/09 11:17:18;;;;;;;;;;;;;;;11.53;100.00;94143.59;5105743;28;19937;-74
2024/02/09 11:19:48;;;;;;;;;;;;;;;11.54;100.00;94163.53;5106224;28;19934;-79
2024/02/09 11:22:14;;;;;;;;;;;;;;;11.54;100.00;94150.41;5105260;28;19953;-74
2024/02/09 11:24:45;;;;;;;;;;;;;;;11.55;100.00;94140.69;5106100;28;19975;-74
2024/02/09 11:27:29;;;;;;;;;;;;;;;11.54;100.00;94145.16;5104751;28;19980;-74
2024/02/09 11:29:55;;;;;;;;;;;;;;;11.54;100.00;94157.50;5105221;28;19932;-74
2024/02/09 11:32:21;;;;;;;;;;;;;;;11.52;100.00;94143.88;5087273;28;20106;-74
2024/02/09 11:34:48;;;;;;;;;;;;;;;11.48;100.00;94148.13;5105968;28;20106;-74
2024/02/09 11:37:14;;;;;;;;;;;;;;;11.44;100.00;94150.50;5105171;28;19934;-68
2024/02/09 11:39:40;;;;;;;;;;;;;;;11.40;100.00;94143.47;5105126;28;19941;-71
2024/02/09 11:42:06;;;;;;;;;;;;;;;11.35;100.00;94137.22;5104982;28;19951;-79
2024/02/09 11:44:32;;;;;;;;;;;;;;;11.31;100.00;94138.06;5105538;28;19937;-78
2024/02/09 11:46:58;;;;;;;;;;;;;;;11.26;100.00;94135.50;5104906;28;19935;-78
2024/02/09 11:49:24;;;;;;;;;;;;;;;11.25;100.00;94144.44;5105427;28;19944;-78
2024/02/09 11:51:50;;;;;;;;;;;;;;;11.24;100.00;94145.50;5104796;28;20001;-79
2024/02/09 11:54:16;;;;;;;;;;;;;;;11.23;100.00;94138.66;5105401;28;20239;-79
2024/02/09 11:56:43;;;;;;;;;;;;;;;11.20;100.00;94137.41;5105010;28;19960;-74
2024/02/09 11:59:11;;;;;;;;;;;;;;;11.19;100.00;94135.81;5104827;28;20125;-72
2024/02/09 12:01:42;;;;;;;;;;;;;;;11.17;100.00;94132.69;5104614;28;20118;-71
2024/02/09 12:04:09;;;;;;;;;;;;;;;11.18;100.00;94144.75;5104955;28;19936;-72
2024/02/09 12:06:36;;;;;;;;;;;;;;;11.17;100.00;94146.59;5104648;28;19939;-72
2024/02/09 12:09:04;;;;;;;;;;;;;;;11.14;100.00;94134.03;5104477;28;20144;-72
2024/02/09 12:11:30;;;;;;;;;;;;;;;11.11;100.00;94126.72;5104559;28;19950;-71
2024/02/09 12:13:56;;;;;;;;;;;;;;;11.07;100.00;94127.56;5104499;28;19938;-72
2024/02/09 12:16:22;;;;;;;;;;;;;;;11.03;100.00;94116.84;5104529;28;19940;-73
2024/02/09 12:18:54;;;;;;;;;;;;;;;11.01;100.00;94132.06;5104456;28;19976;-73
2024/02/09 12:21:20;;;;;;;;;;;;;;;10.99;100.00;94112.44;5104594;28;20219;-73
2024/02/09 12:23:46;;;;;;;;;;;;;;;10.95;100.00;94110.34;5104292;28;19956;-73
2024/02/09 12:26:14;;;;;;;;;;;;;;;10.93;100.00;94115.09;5104353;28;19938;-72
2024/02/09 12:28:40;;;;;;;;;;;;;;;10.92;100.00;94121.41;5105034;28;19937;-73
2024/02/09 12:31:06;;;;;;;;;;;;;;;10.89;100.00;94114.09;5104295;28;19943;-72
2024/02/09 12:33:35;;;;;;;;;;;;;;;10.90;100.00;94112.25;5103875;28;19943;-68
2024/02/09 12:36:08;;;;;;;;;;;;;;;10.90;100.00;94113.03;5104233;28;19929;-71
2024/02/09 12:38:38;;;;;;;;;;;;;;;10.93;100.00;94109.84;5103967;28;19936;-71
2024/02/09 12:41:05;;;;;;;;;;;;;;;10.97;100.00;94104.84;5104366;28;19990;-72
2024/02/09 12:43:30;;;;;;;;;;;;;;;11.00;100.00;94106.91;5104878;28;19947;-71
2024/02/09 12:45:56;;;;;;;;;;;;;;;11.05;100.00;94111.31;5104102;28;19946;-72
2024/02/09 12:48:23;;;;;;;;;;;;;;;11.08;100.00;94108.13;5104652;28;19959;-72
2024/02/09 12:50:52;;;;;;;;;;;;;;;11.08;100.00;94101.03;5104638;28;19936;-66
2024/02/09 12:53:20;;;;;;;;;;;;;;;11.09;100.00;94099.22;5104195;28;19933;-67
2024/02/09 12:55:46;;;;;;;;;;;;;;;11.11;100.00;94102.34;5104589;28;19937;-71
2024/02/09 12:58:13;;;;;;;;;;;;;;;11.11;100.00;94097.88;5103948;28;19967;-71
2024/02/09 13:00:39;;;;;;;;;;;;;;;11.11;100.00;94082.16;5104275;28;19937;-71
2024/02/09 13:03:05;;;;;;;;;;;;;;;11.10;100.00;94098.16;5104163;28;20242;-70
2024/02/09 13:05:31;;;;;;;;;;;;;;;11.09;100.00;94100.00;5103954;28;19983;-71
2024/02/09 13:07:58;;;;;;;;;;;;;;;11.09;100.00;94084.25;5103856;28;19973;-71
2024/02/09 13:10:24;;;;;;;;;;;;;;;11.09;100.00;94086.13;5103922;28;20257;-73
2024/02/09 13:12:52;;;;;;;;;;;;;;;11.08;100.00;94079.28;5104629;28;19940;-72
2024/02/09 13:15:19;;;;;;;;;;;;;;;11.09;100.00;94083.50;5103875;28;19945;-71
2024/02/09 13:17:46;;;;;;;;;;;;;;;11.10;100.00;94079.78;5104356;28;20105;-72
2024/02/09 13:20:12;;;;;;;;;;;;;;;11.09;100.00;94079.03;5104099;28;20229;-71
2024/02/09 13:22:38;;;;;;;;;;;;;;;11.11;100.00;94076.13;5104180;28;19958;-71
2024/02/09 13:25:13;;;;;;;;;;;;;;;11.14;100.00;94080.81;5104579;28;19937;-72
2024/02/09 13:27:41;;;;;;;;;;;;;;;11.16;100.00;94074.22;5104571;28;19936;-66
2024/02/09 13:30:11;;;;;;;;;;;;;;;11.18;100.00;94073.94;5103763;28;19931;-67
2024/02/09 13:32:37;;;;;;;;;;;;;;;11.22;100.00;94071.53;5103969;28;19934;-78
2024/02/09 13:35:10;;;;;;;;;;;;;;;11.25;100.00;94061.25;5103677;28;19959;-78
2024/02/09 13:37:44;;;;;;;;;;;;;;;11.29;100.00;94051.00;5103731;28;19936;-78
2024/02/09 13:40:16;;;;;;;;;;;;;;;11.32;100.00;94045.19;5102985;28;19940;-78
2024/02/09 13:42:45;;;;;;;;;;;;;;;11.37;100.00;94047.75;5104345;28;19956;-79
2024/02/09 13:45:12;;;;;;;;;;;;;;;11.37;100.00;94042.50;5103567;28;19942;-78
2024/02/09 13:47:38;;;;;;;;;;;;;;;11.38;100.00;94038.78;5104347;28;19931;-74
2024/02/09 13:50:10;;;;;;;;;;;;;;;11.40;100.00;94039.28;5103761;28;20082;-71
2024/02/09 13:52:36;;;;;;;;;;;;;;;11.44;100.00;94026.41;5107884;28;19937;-71
2024/02/09 13:55:02;;;;;;;;;;;;;;;11.45;100.00;94033.22;5107132;28;19935;-71
2024/02/09 13:57:28;;;;;;;;;;;;;;;11.47;100.00;94034.50;5107025;28;20115;-71
2024/02/09 13:59:54;;;;;;;;;;;;;;;11.47;100.00;94025.84;5107752;28;19941;-71
2024/02/09 14:02:20;;;;;;;;;;;;;;;11.44;100.00;94011.44;5106924;28;20247;-71
2024/02/09 14:04:46;;;;;;;;;;;;;;;11.41;100.00;94004.13;5107748;28;20089;-71
2024/02/09 14:07:12;;;;;;;;;;;;;;;11.41;100.00;94016.47;5088947;28;19934;-67
2024/02/09 14:09:38;;;;;;;;;;;;;;;11.42;100.00;94012.78;5106802;28;20249;-72
2024/02/09 14:12:04;;;;;;;;;;;;;;;11.42;100.00;94003.06;5106763;28;19940;-73
2024/02/09 14:14:30;;;;;;;;;;;;;;;11.47;100.00;94020.59;5106781;28;20219;-73
2024/02/09 14:16:55;;;;;;;;;;;;;;;11.48;100.00;94011.66;5106692;28;19939;-73
2024/02/09 14:19:21;;;;;;;;;;;;;;;11.48;100.00;94001.94;5105973;28;19976;-72
2024/02/09 14:21:48;;;;;;;;;;;;;;;11.49;100.00;94013.22;5107341;28;19992;-73
2024/02/09 14:24:14;;;;;;;;;;;;;;;11.48;100.00;94015.06;5106560;28;19961;-67
2024/02/09 14:26:42;;;;;;;;;;;;;;;11.47;100.00;94020.59;5106541;28;19939;-70
2024/02/09 14:29:09;;;;;;;;;;;;;;;11.46;100.00;94008.53;5107334;28;20240;-71
2024/02/09 14:31:35;;;;;;;;;;;;;;;11.45;100.00;94013.00;5106472;28;19936;-70